EGXW/WTN METAR and TAF weather

Enter ICAO airport designator
Station Type Date Time Source
EGXW METAR 2020/01/18 03:50 UTC NOAA

EGXW 180350Z AUTO 25007KT 9999 NCD 02/01 Q1019


Station Type Date Time Source
EGXW Decoded METAR 2020/01/18 03:50 UTC NOAA

Waddington, United Kingdom (EGXW) 53-10N 000-31W 0M
Jan 17, 2020 - 10:50 PM EST / 2020.01.18 0350 UTC
Wind: from the WSW (250 degrees) at 8 MPH (7 KT):0
Visibility: greater than 7 mile(s):0
Temperature: 35 F (2 C)
Windchill: 28 F (-2 C):1
Dew Point: 33 F (1 C)
Relative Humidity: 93%
Pressure (altimeter): 30.09 in. Hg (1019 hPa)
ob: EGXW 180350Z AUTO 25007KT 9999 NCD 02/01 Q1019
cycle: 4

Station Type Date Time Source
EGXW TAF 2020/01/17 18:58 UTC NOAA

TAF EGXW 171655Z 1718/1812 23012KT 9999 FEW025 PROB30
TEMPO 1722/1801 7000 SHRA BKN018

Example: see airport list